2022年6月25日

时间 代码 天气 温度 能见度 天花板 METAR/SPECI
2:20 上午
L
63 °F 0 mi - Var Var 3 kt METAR ETWM 250020Z AUTO VRB03KT //// // ////// 17/16 Q1008 ///
1:20 上午
L
63 °F 0 mi - Var Var 1 kt METAR ETWM 242320Z AUTO VRB01KT //// // ////// 17/16 Q1008 ///
12:20 上午
L
64 °F 0 mi - Var Var 2 kt METAR ETWM 242220Z AUTO VRB02KT //// // ////// 18/17 Q1008 ///

2022年6月24日

时间 代码 天气 温度 能见度 天花板 METAR/SPECI
11:20 下午
L
66 °F 0 mi - 300° 300° 2 kt METAR ETWM 242120Z AUTO 30002KT //// // ////// 19/18 Q1008 ///
10:20 下午
L
66 °F 0 mi - 360° 360° 1 kt METAR ETWM 242020Z AUTO 36001KT //// // ////// 19/18 Q1007 ///
9:20 下午
L
68 °F 0 mi - Var Var 2 kt METAR ETWM 241920Z AUTO VRB02KT //// // ////// 20/17 Q1007 ///
8:20 下午
L
70 °F 0 mi - Var Var 2 kt METAR ETWM 241820Z AUTO VRB02KT //// // ////// 21/17 Q1006 ///
7:20 下午
L
73 °F 0 mi - Var Var 2 kt METAR ETWM 241720Z AUTO VRB02KT //// // ////// 23/16 Q1006 ///
6:20 下午
L
73 °F 0 mi - 280° 280° 2 kt METAR ETWM 241620Z AUTO 28002KT //// // ////// 23/15 Q1006 ///
5:20 下午
L
73 °F 0 mi - 250° 250° 3 kt METAR ETWM 241520Z AUTO 25003KT //// // ////// 23/16 Q1006 ///
4:20 下午
L
70 °F 0 mi - Var Var 3 kt METAR ETWM 241420Z AUTO VRB03KT //// // ////// 21/17 Q1006 ///
3:20 下午
L
70 °F 0 mi - 280° 280° 7 kt METAR ETWM 241320Z AUTO 28007KT //// // ////// 21/17 Q1006 ///
2:20 下午
L
70 °F 0 mi - 290° 290° 6 kt METAR ETWM 241220Z AUTO 29006KT //// // ////// 21/18 Q1006 ///
1:20 下午
L
64 °F 0 mi - 290° 290° 3 kt METAR ETWM 241120Z AUTO 29003KT //// // ////// 18/17 Q1006 ///
12:20 下午
L
70 °F 0 mi - Var Var 2 kt METAR ETWM 241020Z AUTO VRB02KT //// // ////// 21/19 Q1005 ///
11:20 上午
V
68 °F 6¼ mi+ 13.000 ft 170° 170° 2 kt METAR ETWM 240920Z 17002KT 9999 SCT006 SCT020 BKN130 20/19 Q1005 BLU
10:20 上午
M
68 °F 6¼ mi+ 1.400 ft 220° 220° 3 kt METAR ETWM 240820Z 22003KT 9999 -SHRA SCT009 BKN014 20/18 Q1005 GRN
9:20 上午
V
68 °F 6¼ mi+ 14.000 ft 250° 250° 4 kt METAR ETWM 240720Z 25004KT 9999 -RA FEW012 SCT100 BKN140 20/18 Q1005 BLU
8:20 上午
V
64 °F 6¼ mi+ 7.000 ft 220° 220° 3 kt METAR ETWM 240620Z 22003KT 9999 VCSH SCT012 FEW030CB BKN070 18/16 Q1005 RETSRA BLU
7:32 上午
V
64 °F 5 mi 10.000 ft 210° 210° 6 kt METAR ETWM 240532Z 21006KT 8000 -SHRA SCT030CB BKN100 18/13 Q1005 RETS BLU
7:25 上午
M
68 °F 3⅛ mi 3.000 ft 170° 170° 9 kt METAR ETWM 240525Z 17009KT 5000 TSRA BKN030CB 20/11 Q1005 WHT
7:20 上午
V
68 °F 6¼ mi+ 3.000 ft 140° 140° 6 - 16 kt METAR ETWM 240520Z 14006G16KT 9999 -TSRA BKN030CB 20/11 Q1005 BLU
7:08 上午
V
68 °F 6¼ mi+ 33.000 ft 120° 120° 3 kt METAR ETWM 240508Z 12003KT 9999 VCTS VCSH SCT030CB BKN330 20/10 Q1005 BLU+
6:20 上午
V
66 °F 6¼ mi+ 33.000 ft Var Var 2 kt METAR ETWM 240420Z VRB02KT 9999 FEW030TCU BKN330 19/10 Q1005 BLU+
5:20 上午
L
66 °F 0 mi - 090° 090° 3 kt METAR ETWM 240320Z AUTO 09003KT //// // ////// 19/09 Q1005 ///
4:20 上午
L
66 °F 0 mi - 080° 080° 4 kt METAR ETWM 240220Z AUTO 08004KT //// // ////// 19/09 Q1005 ///
3:20 上午
L
68 °F 0 mi - 060° 060° 4 kt METAR ETWM 240120Z AUTO 06004KT //// // ////// 20/09 Q1006 ///
2:20 上午
L
70 °F 0 mi - 060° 060° 3 kt METAR ETWM 240020Z AUTO 06003KT //// // ////// 21/09 Q1007 ///
1:20 上午
L
70 °F 0 mi - 060° 060° 3 kt METAR ETWM 232320Z AUTO 06003KT //// // ////// 21/09 Q1007 ///
12:20 上午
L
73 °F 0 mi - 070° 070° 4 kt METAR ETWM 232220Z AUTO 07004KT //// // ////// 23/09 Q1008 ///

2022年6月23日

时间 代码 天气 温度 能见度 天花板 METAR/SPECI
11:20 下午
L
73 °F 0 mi - 060° 060° 4 kt METAR ETWM 232120Z AUTO 06004KT //// // ////// 23/09 Q1008 ///
10:20 下午
L
75 °F 0 mi - Var Var 2 kt METAR ETWM 232020Z AUTO VRB02KT //// // ////// 24/10 Q1008 ///
9:20 下午
L
81 °F 0 mi - 080° 080° 4 kt METAR ETWM 231920Z AUTO 08004KT //// // ////// 27/09 Q1008 ///
8:20 下午
L
84 °F 0 mi - 080° 080° 8 kt METAR ETWM 231820Z AUTO 08008KT //// // ////// 29/08 Q1008 ///
7:20 下午
L
88 °F 0 mi - 090° 090° 6 kt METAR ETWM 231720Z AUTO 09006KT //// // ////// 31/09 Q1008 ///
6:20 下午
L
88 °F 0 mi - 140° 140° 5 kt METAR ETWM 231620Z AUTO 14005KT //// // ////// 31/08 Q1009 ///
5:20 下午
L
90 °F 0 mi - 130° 130° 5 kt METAR ETWM 231520Z AUTO 13005KT //// // ////// 32/09 Q1009 ///
4:20 下午
L
88 °F 0 mi - 110° 110° 9 kt METAR ETWM 231420Z AUTO 11009KT //// // ////// 31/09 Q1010 ///
3:20 下午
L
88 °F 0 mi - 110° 110° 6 kt METAR ETWM 231320Z AUTO 11006KT //// // ////// 31/09 Q1010 ///
2:20 下午
L
88 °F 0 mi - 140° 140° 6 kt METAR ETWM 231220Z AUTO 14006KT //// // ////// 31/09 Q1011 ///
1:20 下午
L
84 °F 0 mi - 130° 130° 7 kt METAR ETWM 231120Z AUTO 13007KT //// // ////// 29/09 Q1011 ///
12:20 下午
L
82 °F 0 mi - 100° 100° 7 kt METAR ETWM 231020Z AUTO 10007KT //// // ////// 28/11 Q1012 ///
11:20 上午
L
79 °F 0 mi - 090° 090° 8 kt METAR ETWM 230920Z AUTO 09008KT //// // ////// 26/11 Q1012 ///
10:20 上午
L
75 °F 0 mi - 070° 070° 6 kt METAR ETWM 230820Z AUTO 07006KT //// // ////// 24/12 Q1012 ///
9:20 上午
L
70 °F 0 mi - 090° 090° 6 kt METAR ETWM 230720Z AUTO 09006KT //// // ////// 21/12 Q1013 ///
8:20 上午
L
64 °F 0 mi - 090° 090° 5 kt METAR ETWM 230620Z AUTO 09005KT //// // ////// 18/13 Q1013 ///
7:20 上午
L
59 °F 0 mi - 070° 070° 5 kt METAR ETWM 230520Z AUTO 07005KT //// // ////// 15/12 Q1013 ///
6:20 上午
L
54 °F 0 mi - 050° 050° 3 kt METAR ETWM 230420Z AUTO 05003KT //// // ////// 12/12 Q1013 ///
5:20 上午
L
52 °F 0 mi - 040° 040° 2 kt METAR ETWM 230320Z AUTO 04002KT //// // ////// 11/11 Q1013 ///
4:20 上午
L
54 °F 0 mi - Var Var 3 kt METAR ETWM 230220Z AUTO VRB03KT //// // ////// 12/11 Q1013 ///
3:20 上午
L
52 °F 0 mi - 040° 040° 2 kt METAR ETWM 230120Z AUTO 04002KT //// // ////// 11/11 Q1014 ///
2:20 上午
L
54 °F 0 mi - 020° 020° 3 kt METAR ETWM 230020Z AUTO 02003KT //// // ////// 12/11 Q1014 ///
1:20 上午
L
54 °F 0 mi - 030° 030° 2 kt METAR ETWM 222320Z AUTO 03002KT //// // ////// 12/11 Q1014 ///
12:20 上午
L
57 °F 0 mi - 020° 020° 2 kt METAR ETWM 222220Z AUTO 02002KT //// // ////// 14/12 Q1014 ///

2022年6月22日

时间 代码 天气 温度 能见度 天花板 METAR/SPECI
11:20 下午
L
59 °F 0 mi - 010° 010° 5 kt METAR ETWM 222120Z AUTO 01005KT //// // ////// 15/13 Q1013 ///
10:20 下午
L
64 °F 0 mi - 010° 010° 7 kt METAR ETWM 222020Z AUTO 01007KT //// // ////// 18/13 Q1013 ///
9:20 下午
L
68 °F 0 mi - 010° 010° 10 kt METAR ETWM 221920Z AUTO 01010KT //// // ////// 20/13 Q1012 ///
8:20 下午
L
72 °F 0 mi - 360° 360° 10 kt METAR ETWM 221820Z AUTO 36010KT //// // ////// 22/13 Q1012 ///
7:20 下午
L
75 °F 0 mi - 020° 020° 8 kt METAR ETWM 221720Z AUTO 02008KT //// // ////// 24/08 Q1012 ///
6:20 下午
L
77 °F 0 mi - 010° 010° 7 kt METAR ETWM 221620Z AUTO 01007KT //// // ////// 25/07 Q1012 ///
5:20 下午
L
77 °F 0 mi - 050° 050° 6 kt METAR ETWM 221520Z AUTO 05006KT //// // ////// 25/05 Q1012 ///
较旧的数据

下载我们的应用程序

在您的手机和平板电脑上轻松访问所有航空天气。
有许多网站上没有的功能,如离线支持和个人机场列表。

Studio Eveline

Benalmádena
España

我们和第三方通过cookies跟踪您在我们网站上的上网行为。如果您继续,我们认为您同意我们的cookie政策。 了解更多